Friday, September 21, 2018, 3:58 AM EDT
Back to Local

KHYA, Hyannis Barnstable Boardmn

Location: West Yarmouth, MA, United States Lat: 41.667
Local Time: 3:58 AM EDT ( 7:58 GMT) Lon: -70.267
Time Zone: US/Eastern Elev: 52 ft

Show me the last for .
Show Decoded

2018-09-21 02:56 METAR KHYA 210656Z AUTO 00000KT 10SM CLR 13/12 A3028 RMK AO2 SLP253 T01330122 =
2018-09-21 01:56 METAR KHYA 210556Z AUTO 00000KT 10SM CLR 14/12 A3027 RMK AO2 SLP252 T01390122
                 10150 20139 58006 =
2018-09-21 00:56 METAR KHYA 210456Z AUTO 05003KT 10SM CLR 14/12 A3029 RMK AO2 SLP258 T01390122
                 402000139 =
2018-09-20 23:56 METAR KHYA 210356Z AUTO 00000KT 10SM CLR 14/12 A3028 RMK AO2 SLP256 T01440122 =
2018-09-20 22:56 METAR KHYA 210256Z AUTO 05004KT 10SM CLR 14/12 A3029 RMK AO2 SLP258 T01390122
                 50009 =
2018-09-20 21:56 METAR KHYA 210156Z 35003KT 10SM CLR 14/12 A3029 RMK AO2 SLP259 T01390122 =
2018-09-20 20:56 METAR KHYA 210056Z 05005KT 10SM CLR 14/12 A3028 RMK AO2 SLP253 T01440122 =
2018-09-20 19:56 METAR KHYA 202356Z 04005KT 10SM CLR 14/12 A3026 RMK AO2 SLP249 T01440122 10194
                 20144 51010 =
2018-09-20 18:56 METAR KHYA 202256Z 05005KT 10SM CLR 16/13 A3025 RMK AO2 SLP245 T01560128 =
2018-09-20 17:56 METAR KHYA 202156Z 08006KT 10SM OVC041 17/13 A3024 RMK AO2 SLP242 T01720128 =
2018-09-20 16:56 METAR KHYA 202056Z 04009KT 10SM BKN021 BKN026 OVC037 18/14 A3023 RMK AO2 SLP238
                 T01780139 53006 =
2018-09-20 15:56 METAR KHYA 201956Z 03008KT 10SM SCT019 BKN028 OVC033 19/15 A3021 RMK AO2 SLP232
                 T01890150 =
2018-09-20 14:56 METAR KHYA 201856Z 05008KT 10SM SCT019 BKN028 OVC035 19/15 A3022 RMK AO2 SLP233
                 T01890150 =
2018-09-20 13:56 METAR KHYA 201756Z 02010KT 10SM SCT016 BKN021 OVC050 18/14 A3022 RMK AO2 SLP232
                 60002 T01830144 10200 20172 50002 =
2018-09-20 13:21 METAR KHYA 201721Z 06007KT 10SM FEW012 SCT036 OVC050 19/16 A3022 RMK AO2
                 T01940161 =
2018-09-20 13:14 METAR KHYA 201714Z 03009KT 10SM SCT015 BKN026 OVC050 19/16 A3022 RMK AO2
                 T01940156 =
2018-09-20 12:56 METAR KHYA 201656Z 03011KT 7SM FEW012 SCT034 OVC050 19/16 A3022 RMK AO2 RAE34
                 SLP235 P0000 T01940161 =
2018-09-20 11:56 METAR KHYA 201556Z 02008KT 4SM -RA BR FEW012 SCT028 OVC034 18/17 A3022 RMK AO2
                 RAB00 SLP235 P0002 T01780167 =
2018-09-20 11:06 METAR KHYA 201506Z 01009G18KT 6SM -RA BR SCT013 BKN018 OVC031 18/16 A3021 RMK
                 AO2 RAB00 P0000 T01780161 =
2018-09-20 10:56 METAR KHYA 201456Z 03007KT 10SM SCT015 SCT022 BKN030 20/16 A3021 RMK AO2 SLP230
                 60000 T02000161 51022 =
2018-09-20 09:56 METAR KHYA 201356Z 06009KT 10SM SCT012 BKN019 OVC050 19/17 A3019 RMK AO2 SLP223
                 T01940167 =
2018-09-20 08:56 METAR KHYA 201256Z 05008KT 6SM BR SCT012 BKN030 OVC049 18/17 A3017 RMK AO2 RAE24
                 SLP217 P0000 T01830172 =
2018-09-20 07:56 METAR KHYA 201156Z 04006KT 5SM -RA BR BKN006 BKN022 OVC033 17/17 A3014 RMK AO2
                 RAB1057E31B48 SLP208 P0001 60007 70008 T01720167 10183 20167 53024 =
2018-09-20 06:56 METAR KHYA 201056Z 05008KT 3SM BR BKN006 BKN011 OVC029 17/17 A3012 RMK AO2 RAE56
                 SLP199 P0003 T01670167 =
2018-09-20 05:56 METAR KHYA 200956Z 03009KT 2SM RA BR BKN008 BKN018 OVC030 17/16 A3009 RMK AO2
                 RAE27B46 SLP191 P0002 T01670161 =
2018-09-20 05:52 METAR KHYA 200952Z 03009KT 2SM RA BR BKN008 BKN018 OVC030 17/16 A3009 RMK AO2
                 VIS 1 3/4V5 RAE27B46 P0001 =
2018-09-20 05:38 METAR KHYA 200938Z 02007KT 10SM SCT008 BKN017 OVC021 17/16 A3009 RMK AO2 RAE27
                 P0000 T01670161 =
2018-09-20 05:03 METAR KHYA 200903Z AUTO 02009KT 3SM -RA BR BKN007 OVC010 17/16 A3007 RMK AO2
                 P0000 T01670161 =
2018-09-20 04:58 METAR KHYA 200858Z AUTO 01011G19KT 2 1/2SM -RA BR SCT005 OVC012 17/16 A3007 RMK
                 AO2 VIS 2V5 P0000 T01670161 =
2018-09-20 04:56 METAR KHYA 200856Z AUTO 01011G19KT 3SM -RA BR SCT005 BKN009 OVC014 17/16 A3007
                 RMK AO2 RAB17 SLP184 P0001 60001 T01670156 53004 =
2018-09-20 04:53 METAR KHYA 200853Z AUTO 01012G19KT 3SM -RA BR BKN007 BKN012 OVC018 17/16 A3007
                 RMK AO2 RAB17 P0000 =
2018-09-20 04:42 METAR KHYA 200842Z AUTO 01009G19KT 2SM -RA BR FEW009 BKN013 OVC022 17/16 A3008
                 RMK AO2 RAB17 P0000 T01670161 =
2018-09-20 04:25 METAR KHYA 200825Z AUTO 02009G17KT 5SM -RA BR SCT009 SCT014 OVC024 17/16 A3007
                 RMK AO2 RAB17 P0000 T01720156 =

Support USWX by starting your Amazon purchase here.